sensor_id;sensor_type;location;lat;lon;timestamp;P1;durP1;ratioP1;P2;durP2;ratioP2
64235;SDS011;50564;47.402;9.740;2022-12-17T00:01:54;48.00;;;28.40;;
64235;SDS011;50564;47.402;9.740;2022-12-17T00:07:13;46.95;;;26.35;;
64235;SDS011;50564;47.402;9.740;2022-12-17T00:12:32;51.95;;;29.08;;
64235;SDS011;50564;47.402;9.740;2022-12-17T00:17:52;53.20;;;29.23;;
64235;SDS011;50564;47.402;9.740;2022-12-17T00:23:11;51.80;;;29.13;;
64235;SDS011;50564;47.402;9.740;2022-12-17T00:28:30;50.08;;;29.60;;
64235;SDS011;50564;47.402;9.740;2022-12-17T00:33:49;50.20;;;28.85;;
64235;SDS011;50564;47.402;9.740;2022-12-17T00:39:08;53.75;;;31.00;;
64235;SDS011;50564;47.402;9.740;2022-12-17T00:44:28;55.38;;;30.23;;
64235;SDS011;50564;47.402;9.740;2022-12-17T00:49:47;55.03;;;30.77;;
64235;SDS011;50564;47.402;9.740;2022-12-17T00:55:06;57.20;;;32.75;;
64235;SDS011;50564;47.402;9.740;2022-12-17T01:00:25;53.00;;;30.23;;
64235;SDS011;50564;47.402;9.740;2022-12-17T01:05:44;53.80;;;30.17;;
64235;SDS011;50564;47.402;9.740;2022-12-17T01:11:20;52.65;;;29.17;;
64235;SDS011;50564;47.402;9.740;2022-12-17T01:16:40;54.15;;;29.48;;
64235;SDS011;50564;47.402;9.740;2022-12-17T01:21:59;52.15;;;29.52;;
64235;SDS011;50564;47.402;9.740;2022-12-17T01:27:18;51.33;;;30.23;;
64235;SDS011;50564;47.402;9.740;2022-12-17T01:32:37;56.55;;;30.73;;
64235;SDS011;50564;47.402;9.740;2022-12-17T01:37:56;55.65;;;31.95;;
64235;SDS011;50564;47.402;9.740;2022-12-17T01:43:33;51.53;;;29.00;;
64235;SDS011;50564;47.402;9.740;2022-12-17T01:48:53;50.85;;;29.30;;
64235;SDS011;50564;47.402;9.740;2022-12-17T01:54:12;54.70;;;30.27;;
64235;SDS011;50564;47.402;9.740;2022-12-17T01:59:44;50.30;;;28.90;;
64235;SDS011;50564;47.402;9.740;2022-12-17T02:05:13;54.40;;;30.15;;
64235;SDS011;50564;47.402;9.740;2022-12-17T02:10:52;55.97;;;30.90;;
64235;SDS011;50564;47.402;9.740;2022-12-17T02:16:26;51.38;;;29.95;;
64235;SDS011;50564;47.402;9.740;2022-12-17T02:21:51;58.75;;;31.92;;
64235;SDS011;50564;47.402;9.740;2022-12-17T02:27:13;57.40;;;33.58;;
64235;SDS011;50564;47.402;9.740;2022-12-17T02:32:33;61.33;;;36.13;;
64235;SDS011;50564;47.402;9.740;2022-12-17T02:37:54;60.65;;;33.88;;
64235;SDS011;50564;47.402;9.740;2022-12-17T02:43:14;60.65;;;32.60;;
64235;SDS011;50564;47.402;9.740;2022-12-17T02:48:34;53.97;;;31.92;;
64235;SDS011;50564;47.402;9.740;2022-12-17T02:53:54;52.25;;;29.85;;
64235;SDS011;50564;47.402;9.740;2022-12-17T02:59:13;54.38;;;30.10;;
64235;SDS011;50564;47.402;9.740;2022-12-17T03:04:37;52.75;;;30.70;;
64235;SDS011;50564;47.402;9.740;2022-12-17T03:09:56;49.33;;;27.88;;
64235;SDS011;50564;47.402;9.740;2022-12-17T03:15:16;48.05;;;28.27;;
64235;SDS011;50564;47.402;9.740;2022-12-17T03:20:35;51.42;;;28.40;;
64235;SDS011;50564;47.402;9.740;2022-12-17T03:25:58;52.38;;;30.17;;
64235;SDS011;50564;47.402;9.740;2022-12-17T03:31:18;57.28;;;33.22;;
64235;SDS011;50564;47.402;9.740;2022-12-17T03:36:37;59.33;;;32.97;;
64235;SDS011;50564;47.402;9.740;2022-12-17T03:41:56;62.25;;;35.45;;
64235;SDS011;50564;47.402;9.740;2022-12-17T03:47:15;56.08;;;32.15;;
64235;SDS011;50564;47.402;9.740;2022-12-17T03:52:34;56.45;;;31.50;;
64235;SDS011;50564;47.402;9.740;2022-12-17T03:57:53;52.25;;;30.42;;
64235;SDS011;50564;47.402;9.740;2022-12-17T04:03:13;57.95;;;32.20;;
64235;SDS011;50564;47.402;9.740;2022-12-17T04:08:32;54.85;;;30.77;;
64235;SDS011;50564;47.402;9.740;2022-12-17T04:13:51;51.85;;;29.02;;
64235;SDS011;50564;47.402;9.740;2022-12-17T04:19:10;66.28;;;35.40;;
64235;SDS011;50564;47.402;9.740;2022-12-17T04:24:30;61.67;;;35.00;;
64235;SDS011;50564;47.402;9.740;2022-12-17T04:29:49;61.28;;;35.95;;
64235;SDS011;50564;47.402;9.740;2022-12-17T04:35:08;61.83;;;36.90;;
64235;SDS011;50564;47.402;9.740;2022-12-17T04:40:28;66.63;;;39.80;;
64235;SDS011;50564;47.402;9.740;2022-12-17T04:45:48;65.78;;;36.00;;
64235;SDS011;50564;47.402;9.740;2022-12-17T04:51:07;67.50;;;39.90;;
64235;SDS011;50564;47.402;9.740;2022-12-17T04:56:26;58.60;;;34.17;;
64235;SDS011;50564;47.402;9.740;2022-12-17T05:01:45;57.08;;;34.45;;
64235;SDS011;50564;47.402;9.740;2022-12-17T05:07:04;61.53;;;35.55;;
64235;SDS011;50564;47.402;9.740;2022-12-17T05:12:23;53.03;;;31.70;;
64235;SDS011;50564;47.402;9.740;2022-12-17T05:17:43;53.25;;;30.13;;
64235;SDS011;50564;47.402;9.740;2022-12-17T05:23:03;52.85;;;31.77;;
64235;SDS011;50564;47.402;9.740;2022-12-17T05:28:24;54.85;;;30.45;;
64235;SDS011;50564;47.402;9.740;2022-12-17T05:33:43;54.22;;;31.77;;
64235;SDS011;50564;47.402;9.740;2022-12-17T05:39:02;53.58;;;31.52;;
64235;SDS011;50564;47.402;9.740;2022-12-17T05:44:21;56.65;;;32.33;;
64235;SDS011;50564;47.402;9.740;2022-12-17T05:49:40;48.00;;;29.23;;
64235;SDS011;50564;47.402;9.740;2022-12-17T05:54:59;51.42;;;30.55;;
64235;SDS011;50564;47.402;9.740;2022-12-17T06:00:18;50.53;;;29.45;;
64235;SDS011;50564;47.402;9.740;2022-12-17T06:05:37;50.47;;;29.27;;
64235;SDS011;50564;47.402;9.740;2022-12-17T06:10:57;51.15;;;31.42;;
64235;SDS011;50564;47.402;9.740;2022-12-17T06:16:17;54.60;;;32.50;;
64235;SDS011;50564;47.402;9.740;2022-12-17T06:21:36;51.63;;;31.13;;
64235;SDS011;50564;47.402;9.740;2022-12-17T06:26:55;49.35;;;29.30;;
64235;SDS011;50564;47.402;9.740;2022-12-17T06:32:15;57.63;;;33.78;;
64235;SDS011;50564;47.402;9.740;2022-12-17T06:37:34;48.97;;;30.15;;
64235;SDS011;50564;47.402;9.740;2022-12-17T06:42:54;49.35;;;29.58;;
64235;SDS011;50564;47.402;9.740;2022-12-17T06:48:13;56.05;;;31.85;;
64235;SDS011;50564;47.402;9.740;2022-12-17T06:53:32;50.65;;;31.73;;
64235;SDS011;50564;47.402;9.740;2022-12-17T06:58:51;53.20;;;31.00;;
64235;SDS011;50564;47.402;9.740;2022-12-17T07:04:11;50.30;;;31.33;;
64235;SDS011;50564;47.402;9.740;2022-12-17T07:09:30;52.05;;;31.13;;
64235;SDS011;50564;47.402;9.740;2022-12-17T07:14:49;51.42;;;29.75;;
64235;SDS011;50564;47.402;9.740;2022-12-17T07:20:08;54.80;;;31.42;;
64235;SDS011;50564;47.402;9.740;2022-12-17T07:25:28;49.25;;;31.17;;
64235;SDS011;50564;47.402;9.740;2022-12-17T07:30:47;70.50;;;42.20;;
64235;SDS011;50564;47.402;9.740;2022-12-17T07:36:06;73.43;;;43.17;;
64235;SDS011;50564;47.402;9.740;2022-12-17T07:41:25;64.32;;;37.67;;
64235;SDS011;50564;47.402;9.740;2022-12-17T07:46:45;60.58;;;35.42;;
64235;SDS011;50564;47.402;9.740;2022-12-17T07:52:04;58.28;;;34.30;;
64235;SDS011;50564;47.402;9.740;2022-12-17T07:57:23;59.15;;;32.92;;
64235;SDS011;50564;47.402;9.740;2022-12-17T08:02:42;55.55;;;32.65;;
64235;SDS011;50564;47.402;9.740;2022-12-17T08:08:08;53.42;;;32.75;;
64235;SDS011;50564;47.402;9.740;2022-12-17T08:13:27;60.55;;;35.00;;
64235;SDS011;50564;47.402;9.740;2022-12-17T08:18:46;55.88;;;31.23;;
64235;SDS011;50564;47.402;9.740;2022-12-17T08:24:06;53.13;;;31.50;;
64235;SDS011;50564;47.402;9.740;2022-12-17T08:29:25;53.63;;;30.55;;
64235;SDS011;50564;47.402;9.740;2022-12-17T08:34:44;48.85;;;28.50;;
64235;SDS011;50564;47.402;9.740;2022-12-17T08:40:03;49.50;;;27.45;;
64235;SDS011;50564;47.402;9.740;2022-12-17T08:45:23;62.85;;;42.60;;
64235;SDS011;50564;47.402;9.740;2022-12-17T08:50:42;51.67;;;28.83;;
64235;SDS011;50564;47.402;9.740;2022-12-17T08:56:01;47.92;;;28.05;;
64235;SDS011;50564;47.402;9.740;2022-12-17T09:01:21;60.40;;;36.03;;
64235;SDS011;50564;47.402;9.740;2022-12-17T09:06:40;58.08;;;33.70;;
64235;SDS011;50564;47.402;9.740;2022-12-17T09:11:59;67.43;;;39.22;;
64235;SDS011;50564;47.402;9.740;2022-12-17T09:17:19;51.53;;;30.17;;
64235;SDS011;50564;47.402;9.740;2022-12-17T09:22:38;46.05;;;29.00;;
64235;SDS011;50564;47.402;9.740;2022-12-17T09:28:01;49.08;;;29.00;;
64235;SDS011;50564;47.402;9.740;2022-12-17T09:33:20;51.40;;;32.47;;
64235;SDS011;50564;47.402;9.740;2022-12-17T09:38:39;48.90;;;29.65;;
64235;SDS011;50564;47.402;9.740;2022-12-17T09:44:00;48.88;;;30.23;;
64235;SDS011;50564;47.402;9.740;2022-12-17T09:49:22;46.80;;;27.85;;
64235;SDS011;50564;47.402;9.740;2022-12-17T09:54:44;44.25;;;27.55;;
64235;SDS011;50564;47.402;9.740;2022-12-17T10:00:25;45.55;;;27.63;;
64235;SDS011;50564;47.402;9.740;2022-12-17T10:05:45;41.65;;;25.65;;
64235;SDS011;50564;47.402;9.740;2022-12-17T10:11:16;40.58;;;26.08;;
64235;SDS011;50564;47.402;9.740;2022-12-17T10:16:43;39.10;;;25.33;;
64235;SDS011;50564;47.402;9.740;2022-12-17T10:22:10;38.75;;;25.48;;
64235;SDS011;50564;47.402;9.740;2022-12-17T10:27:30;39.67;;;24.88;;
64235;SDS011;50564;47.402;9.740;2022-12-17T10:32:53;43.58;;;25.92;;
64235;SDS011;50564;47.402;9.740;2022-12-17T10:38:21;38.10;;;24.23;;
64235;SDS011;50564;47.402;9.740;2022-12-17T10:43:41;40.22;;;24.85;;
64235;SDS011;50564;47.402;9.740;2022-12-17T10:49:11;39.75;;;25.30;;
64235;SDS011;50564;47.402;9.740;2022-12-17T10:54:31;39.90;;;25.35;;
64235;SDS011;50564;47.402;9.740;2022-12-17T10:59:50;42.83;;;26.35;;
64235;SDS011;50564;47.402;9.740;2022-12-17T11:05:14;42.50;;;27.63;;
64235;SDS011;50564;47.402;9.740;2022-12-17T11:10:39;46.33;;;27.58;;
64235;SDS011;50564;47.402;9.740;2022-12-17T11:16:00;44.40;;;26.75;;
64235;SDS011;50564;47.402;9.740;2022-12-17T11:21:21;46.80;;;27.77;;
64235;SDS011;50564;47.402;9.740;2022-12-17T11:26:43;47.13;;;28.17;;
64235;SDS011;50564;47.402;9.740;2022-12-17T12:05:46;43.15;;;26.98;;
64235;SDS011;50564;47.402;9.740;2022-12-17T12:22:40;46.42;;;26.52;;
64235;SDS011;50564;47.402;9.740;2022-12-17T12:28:08;45.97;;;28.23;;
64235;SDS011;50564;47.402;9.740;2022-12-17T12:33:47;42.30;;;26.27;;
64235;SDS011;50564;47.402;9.740;2022-12-17T12:39:10;47.97;;;28.58;;
64235;SDS011;50564;47.402;9.740;2022-12-17T12:50:26;44.70;;;27.60;;
64235;SDS011;50564;47.402;9.740;2022-12-17T12:56:22;47.30;;;28.67;;
64235;SDS011;50564;47.402;9.740;2022-12-17T13:01:45;47.97;;;28.58;;
64235;SDS011;50564;47.402;9.740;2022-12-17T13:07:16;43.00;;;27.52;;
64235;SDS011;50564;47.402;9.740;2022-12-17T13:17:31;46.72;;;27.20;;
64235;SDS011;50564;47.402;9.740;2022-12-17T13:22:34;38.63;;;23.33;;
64235;SDS011;50564;47.402;9.740;2022-12-17T13:27:37;42.75;;;25.83;;
64235;SDS011;50564;47.402;9.740;2022-12-17T13:32:41;46.47;;;29.27;;
64235;SDS011;50564;47.402;9.740;2022-12-17T13:43:18;38.90;;;25.55;;
64235;SDS011;50564;47.402;9.740;2022-12-17T13:48:24;40.45;;;26.58;;
64235;SDS011;50564;47.402;9.740;2022-12-17T13:53:27;44.13;;;26.67;;
64235;SDS011;50564;47.402;9.740;2022-12-17T13:58:30;41.10;;;25.75;;
64235;SDS011;50564;47.402;9.740;2022-12-17T14:03:32;52.30;;;32.22;;
64235;SDS011;50564;47.402;9.740;2022-12-17T14:08:32;40.95;;;25.42;;
64235;SDS011;50564;47.402;9.740;2022-12-17T14:13:35;42.78;;;26.58;;
64235;SDS011;50564;47.402;9.740;2022-12-17T14:18:36;39.30;;;24.65;;
64235;SDS011;50564;47.402;9.740;2022-12-17T14:23:39;46.22;;;27.05;;
64235;SDS011;50564;47.402;9.740;2022-12-17T14:28:48;39.25;;;24.95;;
64235;SDS011;50564;47.402;9.740;2022-12-17T14:34:24;37.53;;;23.77;;
64235;SDS011;50564;47.402;9.740;2022-12-17T14:39:25;42.70;;;24.42;;
64235;SDS011;50564;47.402;9.740;2022-12-17T14:44:28;39.47;;;23.65;;
64235;SDS011;50564;47.402;9.740;2022-12-17T14:49:29;39.60;;;24.85;;
64235;SDS011;50564;47.402;9.740;2022-12-17T14:54:30;41.65;;;25.35;;
64235;SDS011;50564;47.402;9.740;2022-12-17T14:59:35;36.50;;;22.38;;
64235;SDS011;50564;47.402;9.740;2022-12-17T15:04:37;60.33;;;33.80;;
64235;SDS011;50564;47.402;9.740;2022-12-17T15:09:38;45.60;;;27.33;;
64235;SDS011;50564;47.402;9.740;2022-12-17T15:14:40;46.30;;;26.83;;
64235;SDS011;50564;47.402;9.740;2022-12-17T15:19:41;42.63;;;25.70;;
64235;SDS011;50564;47.402;9.740;2022-12-17T15:24:43;40.88;;;24.73;;
64235;SDS011;50564;47.402;9.740;2022-12-17T15:29:44;41.72;;;24.23;;
64235;SDS011;50564;47.402;9.740;2022-12-17T15:34:45;44.20;;;26.60;;
64235;SDS011;50564;47.402;9.740;2022-12-17T15:39:46;38.60;;;23.63;;
64235;SDS011;50564;47.402;9.740;2022-12-17T15:44:47;40.08;;;24.65;;
64235;SDS011;50564;47.402;9.740;2022-12-17T15:49:47;42.20;;;25.05;;
64235;SDS011;50564;47.402;9.740;2022-12-17T15:54:48;44.55;;;26.55;;
64235;SDS011;50564;47.402;9.740;2022-12-17T15:59:49;51.83;;;31.05;;
64235;SDS011;50564;47.402;9.740;2022-12-17T16:04:50;49.20;;;28.83;;
64235;SDS011;50564;47.402;9.740;2022-12-17T16:09:51;49.47;;;28.33;;
64235;SDS011;50564;47.402;9.740;2022-12-17T16:14:52;48.00;;;28.42;;
64235;SDS011;50564;47.402;9.740;2022-12-17T16:19:53;45.80;;;27.55;;
64235;SDS011;50564;47.402;9.740;2022-12-17T16:24:54;51.33;;;30.45;;
64235;SDS011;50564;47.402;9.740;2022-12-17T16:29:55;117.30;;;74.15;;
64235;SDS011;50564;47.402;9.740;2022-12-17T16:34:55;65.38;;;40.92;;
64235;SDS011;50564;47.402;9.740;2022-12-17T16:39:56;58.95;;;35.85;;
64235;SDS011;50564;47.402;9.740;2022-12-17T16:44:57;52.78;;;30.48;;
64235;SDS011;50564;47.402;9.740;2022-12-17T16:49:57;54.17;;;32.45;;
64235;SDS011;50564;47.402;9.740;2022-12-17T16:54:58;49.08;;;29.02;;
64235;SDS011;50564;47.402;9.740;2022-12-17T16:59:59;49.00;;;28.33;;
64235;SDS011;50564;47.402;9.740;2022-12-17T17:05:00;43.97;;;25.30;;
64235;SDS011;50564;47.402;9.740;2022-12-17T17:10:01;62.85;;;37.38;;
64235;SDS011;50564;47.402;9.740;2022-12-17T17:15:02;84.60;;;50.00;;
64235;SDS011;50564;47.402;9.740;2022-12-17T17:20:03;74.65;;;47.80;;
64235;SDS011;50564;47.402;9.740;2022-12-17T17:25:04;61.70;;;37.25;;
64235;SDS011;50564;47.402;9.740;2022-12-17T17:30:05;59.90;;;33.85;;
64235;SDS011;50564;47.402;9.740;2022-12-17T17:35:06;45.13;;;27.20;;
64235;SDS011;50564;47.402;9.740;2022-12-17T17:40:07;58.38;;;31.70;;
64235;SDS011;50564;47.402;9.740;2022-12-17T17:45:09;85.93;;;42.08;;
64235;SDS011;50564;47.402;9.740;2022-12-17T17:50:13;88.90;;;43.63;;
64235;SDS011;50564;47.402;9.740;2022-12-17T17:55:15;71.95;;;36.00;;
64235;SDS011;50564;47.402;9.740;2022-12-17T18:00:16;70.13;;;36.05;;
64235;SDS011;50564;47.402;9.740;2022-12-17T18:05:16;68.38;;;34.38;;
64235;SDS011;50564;47.402;9.740;2022-12-17T18:10:17;56.50;;;32.17;;
64235;SDS011;50564;47.402;9.740;2022-12-17T18:15:18;44.50;;;24.92;;
64235;SDS011;50564;47.402;9.740;2022-12-17T18:20:19;27.13;;;15.68;;
64235;SDS011;50564;47.402;9.740;2022-12-17T18:25:20;40.03;;;22.30;;
64235;SDS011;50564;47.402;9.740;2022-12-17T18:30:20;43.85;;;21.60;;
64235;SDS011;50564;47.402;9.740;2022-12-17T18:35:21;57.75;;;26.42;;
64235;SDS011;50564;47.402;9.740;2022-12-17T18:40:22;38.40;;;17.20;;
64235;SDS011;50564;47.402;9.740;2022-12-17T18:45:23;39.97;;;18.25;;
64235;SDS011;50564;47.402;9.740;2022-12-17T18:50:24;40.03;;;18.13;;
64235;SDS011;50564;47.402;9.740;2022-12-17T18:55:24;25.92;;;12.32;;
64235;SDS011;50564;47.402;9.740;2022-12-17T19:00:25;18.52;;;9.70;;
64235;SDS011;50564;47.402;9.740;2022-12-17T19:05:26;21.98;;;13.63;;
64235;SDS011;50564;47.402;9.740;2022-12-17T19:10:27;27.38;;;14.57;;
64235;SDS011;50564;47.402;9.740;2022-12-17T19:15:28;29.40;;;16.30;;
64235;SDS011;50564;47.402;9.740;2022-12-17T19:20:28;166.40;;;71.70;;
64235;SDS011;50564;47.402;9.740;2022-12-17T19:25:29;71.88;;;36.67;;
64235;SDS011;50564;47.402;9.740;2022-12-17T19:30:30;19.75;;;9.75;;
64235;SDS011;50564;47.402;9.740;2022-12-17T19:35:33;17.27;;;9.30;;
64235;SDS011;50564;47.402;9.740;2022-12-17T19:40:34;21.35;;;12.82;;
64235;SDS011;50564;47.402;9.740;2022-12-17T19:45:35;17.33;;;11.02;;
64235;SDS011;50564;47.402;9.740;2022-12-17T19:50:36;38.15;;;20.25;;
64235;SDS011;50564;47.402;9.740;2022-12-17T19:55:37;32.10;;;19.45;;
64235;SDS011;50564;47.402;9.740;2022-12-17T20:00:37;35.70;;;21.08;;
64235;SDS011;50564;47.402;9.740;2022-12-17T20:05:41;19.90;;;10.20;;
64235;SDS011;50564;47.402;9.740;2022-12-17T20:10:43;15.48;;;7.45;;
64235;SDS011;50564;47.402;9.740;2022-12-17T20:15:44;19.45;;;10.93;;
64235;SDS011;50564;47.402;9.740;2022-12-17T20:20:45;17.88;;;10.55;;
64235;SDS011;50564;47.402;9.740;2022-12-17T20:25:45;16.45;;;8.52;;
64235;SDS011;50564;47.402;9.740;2022-12-17T20:30:46;14.32;;;7.63;;
64235;SDS011;50564;47.402;9.740;2022-12-17T20:35:47;14.57;;;7.20;;
64235;SDS011;50564;47.402;9.740;2022-12-17T20:40:48;12.48;;;6.28;;
64235;SDS011;50564;47.402;9.740;2022-12-17T20:45:49;9.63;;;5.75;;
64235;SDS011;50564;47.402;9.740;2022-12-17T20:50:51;9.07;;;5.10;;
64235;SDS011;50564;47.402;9.740;2022-12-17T20:55:59;6.65;;;4.10;;
64235;SDS011;50564;47.402;9.740;2022-12-17T21:01:01;9.60;;;4.40;;
64235;SDS011;50564;47.402;9.740;2022-12-17T21:06:13;9.02;;;5.13;;
64235;SDS011;50564;47.402;9.740;2022-12-17T21:11:21;9.68;;;5.57;;
64235;SDS011;50564;47.402;9.740;2022-12-17T21:16:27;9.52;;;5.03;;
64235;SDS011;50564;47.402;9.740;2022-12-17T21:21:30;13.63;;;6.15;;
64235;SDS011;50564;47.402;9.740;2022-12-17T21:26:36;12.90;;;5.95;;
64235;SDS011;50564;47.402;9.740;2022-12-17T21:31:39;10.95;;;5.50;;
64235;SDS011;50564;47.402;9.740;2022-12-17T21:36:49;13.07;;;7.20;;
64235;SDS011;50564;47.402;9.740;2022-12-17T21:41:50;11.95;;;6.43;;
64235;SDS011;50564;47.402;9.740;2022-12-17T21:47:09;12.40;;;6.63;;
64235;SDS011;50564;47.402;9.740;2022-12-17T21:52:10;14.25;;;7.05;;
64235;SDS011;50564;47.402;9.740;2022-12-17T21:57:10;16.45;;;8.35;;
64235;SDS011;50564;47.402;9.740;2022-12-17T22:02:11;15.43;;;8.15;;
64235;SDS011;50564;47.402;9.740;2022-12-17T22:07:12;15.38;;;8.48;;
64235;SDS011;50564;47.402;9.740;2022-12-17T22:12:12;17.38;;;8.75;;
64235;SDS011;50564;47.402;9.740;2022-12-17T22:17:31;15.07;;;8.68;;
64235;SDS011;50564;47.402;9.740;2022-12-17T22:22:32;22.75;;;11.60;;
64235;SDS011;50564;47.402;9.740;2022-12-17T22:27:32;33.85;;;17.85;;
64235;SDS011;50564;47.402;9.740;2022-12-17T22:32:33;22.63;;;11.50;;
64235;SDS011;50564;47.402;9.740;2022-12-17T22:37:52;14.45;;;6.60;;
64235;SDS011;50564;47.402;9.740;2022-12-17T22:42:53;18.33;;;6.90;;
64235;SDS011;50564;47.402;9.740;2022-12-17T22:48:32;17.55;;;6.75;;
64235;SDS011;50564;47.402;9.740;2022-12-17T22:53:34;42.50;;;21.88;;
64235;SDS011;50564;47.402;9.740;2022-12-17T22:58:35;42.63;;;22.52;;
64235;SDS011;50564;47.402;9.740;2022-12-17T23:03:39;44.10;;;23.73;;
64235;SDS011;50564;47.402;9.740;2022-12-17T23:08:40;42.03;;;22.50;;
64235;SDS011;50564;47.402;9.740;2022-12-17T23:13:41;38.60;;;21.48;;
64235;SDS011;50564;47.402;9.740;2022-12-17T23:18:42;41.25;;;22.05;;
64235;SDS011;50564;47.402;9.740;2022-12-17T23:23:44;49.15;;;24.48;;
64235;SDS011;50564;47.402;9.740;2022-12-17T23:28:44;52.25;;;26.55;;
64235;SDS011;50564;47.402;9.740;2022-12-17T23:33:45;55.33;;;29.33;;
64235;SDS011;50564;47.402;9.740;2022-12-17T23:38:46;58.25;;;27.98;;
64235;SDS011;50564;47.402;9.740;2022-12-17T23:43:48;45.05;;;25.60;;
64235;SDS011;50564;47.402;9.740;2022-12-17T23:48:48;40.28;;;24.48;;
64235;SDS011;50564;47.402;9.740;2022-12-17T23:53:50;48.08;;;24.80;;
64235;SDS011;50564;47.402;9.740;2022-12-17T23:58:52;45.67;;;25.38;;
